Time;durP1;ratioP1;P1;durP2;ratioP2;P2;SDS_P1;SDS_P2;PMS_P1;PMS_P2;Temp;Humidity;BMP_temperature;BMP_pressure;BME280_temperature;BME280_humidity;BME280_pressure;Samples;Min_cycle;Max_cycle;Signal;HPM_P1;HPM_P2
2021/12/30 00:01:09;;;;;;;0.65;0.65;;;;;;;17.57;60.27;98521.72;3141686;28;20383;-86
2021/12/30 00:02:41;;;;;;;1.23;0.82;;;;;;;17.57;60.42;98527.91;3140098;28;20064;-86
2021/12/30 00:04:13;;;;;;;1.67;0.70;;;;;;;17.56;60.27;98526.25;3139060;28;20052;-86
2021/12/30 00:05:45;;;;;;;0.65;0.50;;;;;;;17.56;60.27;98523.56;3140952;28;20056;-87
2021/12/30 00:07:17;;;;;;;0.75;0.50;;;;;;;17.54;60.43;98533.66;3139722;28;20052;-87
2021/12/30 00:08:50;;;;;;;1.02;0.75;;;;;;;17.53;60.41;98533.88;3141942;28;20566;-86
2021/12/30 00:10:22;;;;;;;0.63;0.63;;;;;;;17.51;60.30;98527.88;3141919;28;20052;-87
2021/12/30 00:11:56;;;;;;;1.38;0.63;;;;;;;17.53;60.24;98533.88;3142640;28;20037;-88
2021/12/30 00:13:28;;;;;;;0.98;0.70;;;;;;;17.52;60.23;98534.88;3142137;28;20055;-86
2021/12/30 00:15:00;;;;;;;0.55;0.50;;;;;;;17.51;60.23;98531.38;3141567;28;20047;-87
2021/12/30 00:16:32;;;;;;;0.77;0.77;;;;;;;17.48;60.51;98521.06;3142091;28;20044;-85
2021/12/30 00:18:05;;;;;;;1.08;1.05;;;;;;;17.46;60.46;98519.59;3142924;28;20191;-85
2021/12/30 00:19:37;;;;;;;0.70;0.70;;;;;;;17.46;60.49;98522.28;3141142;28;20098;-87
2021/12/30 00:21:12;;;;;;;1.83;0.63;;;;;;;17.45;60.49;98529.50;3142868;28;20033;-87
2021/12/30 00:22:44;;;;;;;0.20;0.20;;;;;;;17.45;60.45;98536.72;3142748;28;20060;-86
2021/12/30 00:24:16;;;;;;;0.70;0.52;;;;;;;17.45;60.41;98531.34;3141073;28;20048;-87
2021/12/30 00:25:48;;;;;;;0.50;0.47;;;;;;;17.43;60.21;98524.31;3143098;28;20132;-86
2021/12/30 00:27:22;;;;;;;2.20;0.80;;;;;;;17.43;60.47;98518.13;3142836;28;20106;-87
2021/12/30 00:28:53;;;;;;;0.63;0.40;;;;;;;17.42;60.31;98516.50;3142872;28;20098;-87
2021/12/30 00:30:25;;;;;;;0.55;0.50;;;;;;;17.40;60.36;98513.16;3140275;28;20094;-87
2021/12/30 00:31:57;;;;;;;1.98;0.50;;;;;;;17.41;60.31;98513.00;3141492;28;20036;-87
2021/12/30 00:33:32;;;;;;;0.75;0.55;;;;;;;17.38;60.36;98509.84;3141705;28;20397;-87
2021/12/30 00:35:05;;;;;;;0.63;0.60;;;;;;;17.39;60.27;98515.03;3140857;28;20120;-87
2021/12/30 00:36:37;;;;;;;1.30;0.73;;;;;;;17.39;60.41;98520.41;3140043;28;20112;-87
2021/12/30 00:38:10;;;;;;;1.27;0.75;;;;;;;17.39;60.35;98530.28;3143917;28;20049;-86
2021/12/30 00:39:42;;;;;;;1.15;0.70;;;;;;;17.36;60.31;98528.00;3143273;28;20554;-86
2021/12/30 00:41:14;;;;;;;0.68;0.50;;;;;;;17.38;60.35;98528.63;3138336;28;20044;-87
2021/12/30 00:42:47;;;;;;;0.95;0.77;;;;;;;17.37;60.29;98521.63;3143152;28;20040;-87
2021/12/30 00:44:20;;;;;;;0.85;0.40;;;;;;;17.37;60.23;98522.44;3140719;28;20055;-87
2021/12/30 00:45:52;;;;;;;0.50;0.50;;;;;;;17.36;60.24;98525.34;3137505;28;20053;-86
2021/12/30 00:47:23;;;;;;;0.50;0.50;;;;;;;17.36;60.46;98530.69;3140848;28;20041;-87
2021/12/30 00:48:55;;;;;;;0.50;0.50;;;;;;;17.33;60.40;98537.28;3141337;28;20042;-86
2021/12/30 00:50:28;;;;;;;0.77;0.50;;;;;;;17.34;60.47;98540.78;3141035;28;20051;-89
2021/12/30 00:52:00;;;;;;;0.75;0.63;;;;;;;17.33;60.32;98548.00;3141910;28;20056;-86
2021/12/30 00:53:32;;;;;;;0.73;0.60;;;;;;;17.31;60.34;98541.19;3140600;28;20048;-86
2021/12/30 00:55:05;;;;;;;0.73;0.60;;;;;;;17.30;60.16;98545.72;3141563;28;20045;-85
2021/12/30 00:56:37;;;;;;;1.83;0.63;;;;;;;17.31;60.23;98538.50;3140177;28;20040;-86
2021/12/30 00:58:11;;;;;;;1.05;0.63;;;;;;;17.29;60.29;98540.53;3143012;28;20333;-86
2021/12/30 00:59:42;;;;;;;0.50;0.50;;;;;;;17.28;60.31;98538.91;3143084;28;20163;-86
2021/12/30 01:01:13;;;;;;;0.90;0.65;;;;;;;17.27;60.30;98543.41;3139622;28;20480;-87
2021/12/30 01:02:47;;;;;;;0.47;0.47;;;;;;;17.27;60.32;98543.41;3142783;28;20052;-85
2021/12/30 01:04:20;;;;;;;0.50;0.50;;;;;;;17.26;60.35;98535.56;3138497;28;20048;-88
2021/12/30 01:05:51;;;;;;;1.00;0.90;;;;;;;17.25;60.36;98542.78;3148768;28;20052;-89
2021/12/30 01:07:26;;;;;;;0.30;0.30;;;;;;;17.24;60.16;98548.34;3153616;28;20128;-86
2021/12/30 01:08:58;;;;;;;0.90;0.50;;;;;;;17.22;60.35;98545.00;3156024;28;20059;-87
2021/12/30 01:10:31;;;;;;;2.10;1.17;;;;;;;17.22;60.57;98550.38;3154339;28;20048;-87
2021/12/30 01:12:03;;;;;;;1.08;0.50;;;;;;;17.22;60.39;98545.00;3154817;28;20063;-85
2021/12/30 01:13:41;;;;;;;0.65;0.63;;;;;;;17.18;60.48;98542.72;3152397;28;20051;-85
2021/12/30 01:15:17;;;;;;;0.85;0.70;;;;;;;17.18;60.40;98545.41;3153605;28;20071;-87
2021/12/30 01:16:53;;;;;;;0.80;0.75;;;;;;;17.18;60.28;98555.31;3156997;28;20139;-88
2021/12/30 01:18:33;;;;;;;0.93;0.45;;;;;;;17.16;60.44;98552.84;3155102;28;20138;-88
2021/12/30 01:20:06;;;;;;;0.63;0.40;;;;;;;17.15;60.36;98556.53;3151071;28;20097;-86
2021/12/30 01:21:38;;;;;;;0.73;0.60;;;;;;;17.12;60.46;98548.06;3158630;28;20108;-87
2021/12/30 01:23:09;;;;;;;1.08;0.75;;;;;;;17.11;60.54;98547.25;3157782;28;20051;-87
2021/12/30 01:24:41;;;;;;;1.13;0.52;;;;;;;17.11;60.50;98541.88;3144607;28;20434;-88
2021/12/30 01:26:13;;;;;;;0.47;0.47;;;;;;;17.10;60.16;98542.88;3141598;28;20170;-88
2021/12/30 01:27:46;;;;;;;0.55;0.50;;;;;;;17.10;60.42;98548.25;3142146;28;20044;-86
2021/12/30 01:29:19;;;;;;;0.52;0.52;;;;;;;17.10;60.41;98542.88;3139624;28;20114;-86
2021/12/30 01:30:51;;;;;;;0.40;0.32;;;;;;;17.09;60.47;98543.91;3136723;28;20036;-86
2021/12/30 01:32:23;;;;;;;0.45;0.45;;;;;;;17.07;60.53;98537.09;3135656;28;20045;-87
2021/12/30 01:33:55;;;;;;;0.30;0.30;;;;;;;17.08;60.44;98538.78;3140251;28;20036;-86
2021/12/30 01:35:27;;;;;;;0.50;0.47;;;;;;;17.06;60.62;98532.78;3135895;28;20052;-86
2021/12/30 01:37:01;;;;;;;0.63;0.40;;;;;;;17.05;60.54;98523.91;3142643;28;20071;-83
2021/12/30 01:38:33;;;;;;;0.65;0.45;;;;;;;17.02;60.45;98528.81;3140183;28;20060;-86
2021/12/30 01:40:10;;;;;;;0.50;0.50;;;;;;;17.02;60.61;98524.31;3141722;28;20110;-86
2021/12/30 01:41:44;;;;;;;0.88;0.50;;;;;;;17.01;60.60;98529.84;3148807;28;20039;-86
2021/12/30 01:43:16;;;;;;;0.80;0.60;;;;;;;17.00;60.54;98537.06;3140989;28;20044;-85
2021/12/30 01:44:50;;;;;;;1.05;0.55;;;;;;;17.00;60.46;98536.25;3141126;28;20041;-88
2021/12/30 01:46:22;;;;;;;0.65;0.65;;;;;;;16.98;60.58;98531.88;3141054;28;20618;-86
2021/12/30 01:47:54;;;;;;;0.57;0.50;;;;;;;16.98;60.62;98536.41;3141925;28;20052;-85
2021/12/30 01:49:29;;;;;;;0.70;0.63;;;;;;;16.96;60.49;98533.09;3140829;28;20557;-87
2021/12/30 01:51:02;;;;;;;0.98;0.57;;;;;;;16.96;60.50;98541.13;3142750;28;20979;-86
2021/12/30 01:52:34;;;;;;;0.68;0.68;;;;;;;16.95;60.49;98550.22;3140091;28;20568;-86
2021/12/30 01:54:07;;;;;;;0.45;0.45;;;;;;;16.94;60.46;98548.56;3142313;28;20044;-88
2021/12/30 01:55:41;;;;;;;1.70;0.70;;;;;;;16.93;60.41;98550.38;3141325;28;20503;-87
2021/12/30 01:57:13;;;;;;;1.08;0.73;;;;;;;16.93;60.58;98544.22;3141762;28;20388;-86
2021/12/30 01:58:44;;;;;;;1.15;0.47;;;;;;;16.91;60.72;98539.06;3142086;28;20037;-86
2021/12/30 02:00:20;;;;;;;0.85;0.60;;;;;;;16.88;60.67;98541.28;3140535;28;20114;-87
2021/12/30 02:01:56;;;;;;;0.60;0.60;;;;;;;16.88;60.66;98547.50;3136377;28;20134;-87
2021/12/30 02:03:27;;;;;;;0.88;0.77;;;;;;;16.87;60.67;98551.19;3138463;28;20045;-86
2021/12/30 02:05:00;;;;;;;1.00;0.60;;;;;;;16.87;60.70;98545.00;3141101;28;20433;-87
2021/12/30 02:06:32;;;;;;;0.93;0.70;;;;;;;16.85;60.66;98555.88;3139231;28;20152;-86
2021/12/30 02:08:05;;;;;;;0.60;0.60;;;;;;;16.84;60.60;98543.53;3141161;28;20048;-87
2021/12/30 02:09:37;;;;;;;0.50;0.50;;;;;;;16.83;60.54;98552.59;3135594;28;20056;-85
2021/12/30 02:11:09;;;;;;;0.85;0.57;;;;;;;16.82;60.68;98555.47;3141152;28;20201;-84
2021/12/30 02:12:43;;;;;;;0.90;0.82;;;;;;;16.80;60.72;98558.34;3140596;28;20049;-86
2021/12/30 02:14:15;;;;;;;0.70;0.30;;;;;;;16.79;60.77;98563.88;3139950;28;20059;-87
2021/12/30 02:15:50;;;;;;;0.65;0.50;;;;;;;16.79;60.67;98558.53;3139705;28;20053;-87
2021/12/30 02:17:21;;;;;;;1.10;0.40;;;;;;;16.75;60.73;98563.41;3139613;28;20475;-85
2021/12/30 02:18:53;;;;;;;0.82;0.70;;;;;;;16.75;60.67;98571.44;3141404;28;20032;-87
2021/12/30 02:20:44;;;;;;;0.77;0.73;;;;;;;16.74;60.68;98567.97;3139965;28;20565;-86
2021/12/30 02:22:16;;;;;;;1.00;0.63;;;;;;;16.73;60.70;98563.59;3136881;28;20044;-86
2021/12/30 02:23:48;;;;;;;0.70;0.50;;;;;;;16.71;60.82;98565.63;3141303;28;20040;-87
2021/12/30 02:25:20;;;;;;;0.90;0.65;;;;;;;16.71;60.86;98570.16;3139139;28;20504;-87
2021/12/30 02:26:52;;;;;;;1.08;0.52;;;;;;;16.69;60.84;98567.69;3136187;28;20458;-86
2021/12/30 02:28:27;;;;;;;0.95;0.55;;;;;;;16.69;60.98;98562.34;3140628;28;20632;-87
2021/12/30 02:29:59;;;;;;;2.20;0.80;;;;;;;16.68;60.83;98557.16;3141118;28;20140;-86
2021/12/30 02:31:32;;;;;;;1.17;0.80;;;;;;;16.66;60.79;98554.69;3137873;28;20587;-86
2021/12/30 02:33:04;;;;;;;0.98;0.85;;;;;;;16.65;60.80;98566.41;3141871;28;20059;-87
2021/12/30 02:34:38;;;;;;;2.28;0.88;;;;;;;16.64;60.98;98559.41;3137914;28;20083;-88
2021/12/30 02:36:17;;;;;;;0.50;0.50;;;;;;;16.64;60.86;98564.75;3138643;28;20040;-88
2021/12/30 02:37:49;;;;;;;1.00;0.57;;;;;;;16.62;60.84;98560.63;3141656;28;20045;-86
2021/12/30 02:39:23;;;;;;;1.77;1.10;;;;;;;16.61;60.75;98559.78;3138184;28;20036;-86
2021/12/30 02:40:57;;;;;;;0.40;0.40;;;;;;;16.62;61.04;98557.94;3141041;28;20041;-86
2021/12/30 02:42:28;;;;;;;0.85;0.45;;;;;;;16.61;60.88;98553.63;3137147;28;20083;-85
2021/12/30 02:44:01;;;;;;;0.77;0.50;;;;;;;16.59;61.08;98556.47;3136793;28;20055;-86
2021/12/30 02:45:33;;;;;;;1.38;0.50;;;;;;;16.60;60.94;98551.94;3137679;28;20076;-87
2021/12/30 02:47:05;;;;;;;0.50;0.40;;;;;;;16.58;60.89;98548.66;3140944;28;20063;-86
2021/12/30 02:48:41;;;;;;;0.65;0.50;;;;;;;16.58;61.02;98549.47;3138437;28;20045;-87
2021/12/30 02:50:11;;;;;;;1.00;0.80;;;;;;;16.58;60.89;98556.69;3138173;28;20101;-85
2021/12/30 02:51:45;;;;;;;0.93;0.85;;;;;;;16.56;60.90;98556.84;3140492;28;20052;-87
2021/12/30 02:53:19;;;;;;;0.60;0.60;;;;;;;16.54;60.96;98564.25;3137416;28;20101;-87
2021/12/30 02:54:50;;;;;;;1.05;0.50;;;;;;;16.52;60.87;98560.97;3138026;28;20079;-86
2021/12/30 02:56:23;;;;;;;0.90;0.80;;;;;;;16.52;61.04;98558.28;3139677;28;20128;-86
2021/12/30 02:57:55;;;;;;;0.65;0.65;;;;;;;16.51;61.09;98562.78;3140504;28;20044;-86
2021/12/30 02:59:27;;;;;;;1.73;0.90;;;;;;;16.51;61.19;98570.00;3138476;28;20040;-86
2021/12/30 03:01:03;;;;;;;0.60;0.60;;;;;;;16.51;60.96;98581.53;3137439;28;20056;-86
2021/12/30 03:02:40;;;;;;;0.73;0.73;;;;;;;16.49;60.99;98566.66;3138419;28;20322;-87
2021/12/30 03:04:12;;;;;;;0.68;0.52;;;;;;;16.47;61.16;98568.72;3144790;28;20044;-87
2021/12/30 03:05:44;;;;;;;0.95;0.70;;;;;;;16.48;61.11;98575.72;3151206;28;20119;-87
2021/12/30 03:07:18;;;;;;;0.50;0.50;;;;;;;16.45;61.13;98570.75;3150934;28;20399;-87
2021/12/30 03:08:51;;;;;;;0.60;0.57;;;;;;;16.43;61.20;98572.78;3151538;28;20426;-86
2021/12/30 03:10:29;;;;;;;0.70;0.32;;;;;;;16.45;61.08;98576.13;3150941;28;20048;-87
2021/12/30 03:12:01;;;;;;;0.63;0.50;;;;;;;16.43;61.13;98572.78;3152170;28;20464;-87
2021/12/30 03:13:32;;;;;;;1.10;0.60;;;;;;;16.43;61.16;98583.50;3151044;28;20059;-89
2021/12/30 03:15:08;;;;;;;1.77;0.55;;;;;;;16.42;61.06;98585.34;3152305;28;20044;-86
2021/12/30 03:16:42;;;;;;;2.35;0.50;;;;;;;16.41;61.15;98569.47;3151910;28;20040;-85
2021/12/30 03:18:15;;;;;;;0.82;0.60;;;;;;;16.39;61.19;98568.84;3149539;28;20078;-87
2021/12/30 03:19:47;;;;;;;0.50;0.50;;;;;;;16.39;61.21;98569.69;3151435;28;20373;-86
2021/12/30 03:21:22;;;;;;;0.90;0.70;;;;;;;16.37;61.29;98573.56;3151905;28;20120;-86
2021/12/30 03:22:55;;;;;;;1.55;0.73;;;;;;;16.35;61.20;98571.06;3152451;28;20566;-87
2021/12/30 03:24:30;;;;;;;0.80;0.50;;;;;;;16.36;61.24;98571.91;3150102;28;20376;-85
2021/12/30 03:26:02;;;;;;;0.88;0.52;;;;;;;16.37;61.19;98574.38;3151317;28;20048;-85
2021/12/30 03:27:34;;;;;;;0.75;0.43;;;;;;;16.33;61.15;98578.47;3148731;28;20061;-86
2021/12/30 03:29:08;;;;;;;0.65;0.55;;;;;;;16.34;61.21;98582.78;3152212;28;20109;-88
2021/12/30 03:30:40;;;;;;;1.20;0.60;;;;;;;16.31;61.17;98575.97;3151945;28;20051;-86
2021/12/30 03:32:12;;;;;;;1.00;0.70;;;;;;;16.31;61.26;98573.28;3151913;28;20055;-86
2021/12/30 03:33:45;;;;;;;1.10;0.80;;;;;;;16.31;61.36;98575.97;3149386;28;20044;-86
2021/12/30 03:35:17;;;;;;;0.82;0.60;;;;;;;16.30;61.18;98585.03;3149978;28;20094;-85
2021/12/30 03:36:49;;;;;;;0.60;0.52;;;;;;;16.33;61.14;98593.72;3150544;28;20048;-86
2021/12/30 03:38:22;;;;;;;1.50;0.90;;;;;;;16.31;61.24;98599.25;3150425;28;20044;-85
2021/12/30 03:39:54;;;;;;;1.05;0.70;;;;;;;16.32;61.15;98608.91;3152032;28;20040;-87
2021/12/30 03:41:27;;;;;;;1.55;1.20;;;;;;;16.28;61.37;98599.63;3151560;28;20048;-86
2021/12/30 03:42:59;;;;;;;1.40;0.57;;;;;;;16.28;61.19;98600.44;3153996;28;20434;-86
2021/12/30 03:44:31;;;;;;;1.05;0.50;;;;;;;16.26;61.39;98594.44;3152543;28;20194;-85
2021/12/30 03:46:03;;;;;;;0.73;0.70;;;;;;;16.26;61.48;98585.59;3154003;28;20044;-87
2021/12/30 03:47:37;;;;;;;;;;;;;;;16.25;61.32;98583.94;3154715;28;20154;-86
2021/12/30 03:49:10;;;;;;;1.48;0.60;;;;;;;16.24;61.34;98587.63;3155110;28;19924;-85
2021/12/30 03:50:44;;;;;;;1.33;0.60;;;;;;;16.24;61.35;98585.78;3139119;28;20470;-87
2021/12/30 03:52:23;;;;;;;1.38;0.93;;;;;;;16.23;61.35;98584.13;3139646;28;20048;-86
2021/12/30 03:53:58;;;;;;;0.73;0.70;;;;;;;16.24;61.30;98590.28;3142327;28;20040;-86
2021/12/30 03:55:31;;;;;;;0.50;0.50;;;;;;;16.24;61.36;98595.66;3140890;28;20538;-86
2021/12/30 03:57:03;;;;;;;0.98;0.73;;;;;;;16.24;61.15;98595.66;3142715;28;20049;-86
2021/12/30 03:58:35;;;;;;;0.65;0.45;;;;;;;16.24;61.33;98596.50;3138904;28;20181;-86
2021/12/30 04:00:09;;;;;;;0.55;0.52;;;;;;;16.25;61.35;98603.50;3140788;28;20072;-86
2021/12/30 04:01:41;;;;;;;0.90;0.52;;;;;;;16.25;61.44;98603.50;3141683;28;20039;-86
2021/12/30 04:03:13;;;;;;;0.30;0.30;;;;;;;16.26;61.20;98618.53;3142346;28;20052;-83
2021/12/30 04:04:45;;;;;;;0.73;0.63;;;;;;;16.27;61.21;98619.38;3149704;28;20106;-85
2021/12/30 04:06:17;;;;;;;0.80;0.60;;;;;;;16.28;61.30;98629.88;3147677;28;20044;-88
2021/12/30 04:07:49;;;;;;;0.82;0.70;;;;;;;16.27;61.24;98627.41;3142888;28;20051;-85
2021/12/30 04:09:22;;;;;;;0.90;0.90;;;;;;;16.26;61.23;98631.91;3141208;28;20044;-85
2021/12/30 04:10:56;;;;;;;0.93;0.65;;;;;;;16.26;61.31;98631.91;3142231;28;20117;-86
2021/12/30 04:12:28;;;;;;;0.35;0.35;;;;;;;16.28;61.36;98621.03;3141599;28;20227;-85
2021/12/30 04:14:00;;;;;;;0.82;0.82;;;;;;;16.26;61.31;98625.72;3142589;28;20052;-86
2021/12/30 04:15:32;;;;;;;0.57;0.40;;;;;;;16.26;61.20;98623.06;3140423;28;20036;-87
2021/12/30 04:17:04;;;;;;;0.73;0.70;;;;;;;16.26;61.04;98625.72;3138002;28;20075;-87
2021/12/30 04:18:36;;;;;;;0.63;0.50;;;;;;;16.25;61.24;98627.59;3140105;28;20522;-87
2021/12/30 04:20:11;;;;;;;0.95;0.50;;;;;;;16.24;61.17;98628.63;3141651;28;20106;-86
2021/12/30 04:21:43;;;;;;;0.50;0.50;;;;;;;16.25;61.18;98624.09;3141324;28;20044;-86
2021/12/30 04:23:15;;;;;;;0.85;0.50;;;;;;;16.26;61.53;98625.72;3140701;28;20044;-86
2021/12/30 04:24:48;;;;;;;0.50;0.50;;;;;;;16.25;61.17;98624.91;3140752;28;20068;-86
2021/12/30 04:26:20;;;;;;;0.75;0.47;;;;;;;16.24;61.37;98628.63;3142992;28;20045;-86
2021/12/30 04:27:52;;;;;;;0.70;0.52;;;;;;;16.24;61.26;98625.94;3141709;28;20493;-87
2021/12/30 04:29:25;;;;;;;0.50;0.50;;;;;;;16.24;61.29;98625.09;3142323;28;20585;-86
2021/12/30 04:30:56;;;;;;;0.88;0.60;;;;;;;16.23;61.28;98626.94;3143339;28;20062;-87
2021/12/30 04:32:28;;;;;;;1.23;0.82;;;;;;;16.23;61.26;98626.94;3138598;28;20580;-85
2021/12/30 04:34:00;;;;;;;0.43;0.40;;;;;;;16.23;61.20;98626.94;3136955;28;20158;-86
2021/12/30 04:35:33;;;;;;;0.73;0.73;;;;;;;16.21;61.21;98623.63;3140089;28;20055;-87
2021/12/30 04:37:05;;;;;;;0.65;0.47;;;;;;;16.22;61.33;98633.31;3141426;28;20102;-87
2021/12/30 04:38:38;;;;;;;0.70;0.60;;;;;;;16.22;61.28;98629.81;3140937;28;20048;-87
2021/12/30 04:40:13;;;;;;;0.70;0.45;;;;;;;16.21;61.53;98623.63;3141662;28;20053;-85
2021/12/30 04:41:45;;;;;;;1.55;0.80;;;;;;;16.20;61.41;98624.63;3125963;28;20071;-86
2021/12/30 04:43:17;;;;;;;0.60;0.57;;;;;;;16.20;61.30;98635.34;3144782;28;20638;-87
2021/12/30 04:44:49;;;;;;;0.98;0.65;;;;;;;16.20;61.34;98643.38;3148374;28;20044;-86
2021/12/30 04:46:21;;;;;;;0.50;0.40;;;;;;;16.19;61.42;98641.72;3138572;28;20044;-87
2021/12/30 04:47:53;;;;;;;1.70;1.25;;;;;;;16.19;61.38;98640.91;3141673;28;20055;-88
2021/12/30 04:49:26;;;;;;;0.68;0.63;;;;;;;16.18;61.35;98649.94;3138775;28;20451;-87
2021/12/30 04:50:58;;;;;;;0.77;0.50;;;;;;;16.18;61.16;98658.78;3140210;28;20045;-87
2021/12/30 04:52:29;;;;;;;0.68;0.50;;;;;;;16.18;61.31;98656.09;3140390;28;20145;-87
2021/12/30 04:54:01;;;;;;;0.50;0.50;;;;;;;16.18;61.28;98657.97;3141338;28;20049;-86
2021/12/30 04:55:33;;;;;;;0.60;0.55;;;;;;;16.18;61.19;98660.63;3140181;28;20555;-86
2021/12/30 04:57:05;;;;;;;1.67;0.88;;;;;;;16.16;61.37;98665.34;3141172;28;20095;-87
2021/12/30 04:58:37;;;;;;;0.77;0.47;;;;;;;16.15;61.47;98666.34;3141832;28;21200;-87
2021/12/30 05:00:13;;;;;;;0.55;0.45;;;;;;;16.15;61.38;98663.69;3141793;28;20097;-85
2021/12/30 05:01:45;;;;;;;1.30;0.80;;;;;;;16.15;61.41;98658.34;3141449;28;20384;-86
2021/12/30 05:03:16;;;;;;;1.10;0.70;;;;;;;16.14;61.52;98662.03;3146802;28;20106;-87
2021/12/30 05:04:48;;;;;;;0.70;0.50;;;;;;;16.13;61.38;98666.56;3140198;28;20040;-86
2021/12/30 05:06:20;;;;;;;1.23;0.52;;;;;;;16.13;61.46;98660.34;3139820;28;20119;-87
2021/12/30 05:07:51;;;;;;;0.50;0.50;;;;;;;16.15;61.53;98669.03;3138901;28;20052;-86
2021/12/30 05:09:23;;;;;;;0.80;0.60;;;;;;;16.14;61.30;98664.72;3140508;28;20044;-87
2021/12/30 05:10:56;;;;;;;0.40;0.40;;;;;;;16.16;61.38;98660.84;3140773;28;20173;-86
2021/12/30 05:12:28;;;;;;;0.75;0.45;;;;;;;16.19;61.33;98654.28;3138331;28;20041;-86
2021/12/30 05:14:00;;;;;;;0.70;0.70;;;;;;;16.22;61.61;98664.59;3140933;28;20055;-86
2021/12/30 05:15:31;;;;;;;0.82;0.52;;;;;;;16.27;61.50;98670.22;3138377;28;20045;-87
2021/12/30 05:17:04;;;;;;;0.60;0.60;;;;;;;16.31;61.42;98671.50;3141983;28;20067;-87
2021/12/30 05:18:36;;;;;;;0.80;0.45;;;;;;;16.36;61.44;98658.38;3138168;28;20884;-86
2021/12/30 05:20:09;;;;;;;0.45;0.40;;;;;;;16.41;61.44;98671.19;3140782;28;20044;-86
2021/12/30 05:21:41;;;;;;;0.75;0.40;;;;;;;16.46;61.30;98679.50;3142949;28;20149;-86
2021/12/30 05:23:17;;;;;;;0.95;0.73;;;;;;;16.54;61.13;98672.16;3154620;28;20130;-85
2021/12/30 05:24:49;;;;;;;0.50;0.40;;;;;;;16.59;61.16;98676.16;3144100;28;20044;-86
2021/12/30 05:26:27;;;;;;;1.15;0.95;;;;;;;16.65;61.06;98680.75;3142943;28;20189;-87
2021/12/30 05:27:59;;;;;;;0.60;0.50;;;;;;;16.73;60.90;98685.97;3144659;28;20044;-88
2021/12/30 05:29:31;;;;;;;0.60;0.60;;;;;;;16.76;60.84;98688.28;3142183;28;20053;-86
2021/12/30 05:31:03;;;;;;;0.40;0.40;;;;;;;16.80;60.81;98684.25;3144288;28;20064;-86
2021/12/30 05:32:35;;;;;;;0.63;0.60;;;;;;;16.84;60.77;98684.69;3142178;28;20040;-86
2021/12/30 05:34:07;;;;;;;0.68;0.68;;;;;;;16.86;60.69;98685.31;3143990;28;20598;-87
2021/12/30 05:35:39;;;;;;;0.55;0.50;;;;;;;16.89;60.72;98695.66;3141097;28;20112;-88
2021/12/30 05:37:10;;;;;;;0.40;0.40;;;;;;;16.90;60.60;98699.97;3145661;28;20056;-85
2021/12/30 05:38:42;;;;;;;0.65;0.52;;;;;;;16.93;60.56;98696.91;3144795;28;20060;-86
2021/12/30 05:40:16;;;;;;;0.60;0.47;;;;;;;16.97;60.52;98701.72;3150264;28;20051;-86
2021/12/30 05:41:49;;;;;;;0.47;0.40;;;;;;;16.97;60.58;98695.53;3142706;28;20399;-88
2021/12/30 05:43:20;;;;;;;1.30;0.80;;;;;;;17.01;60.59;98698.66;3139281;28;20147;-87
2021/12/30 05:44:53;;;;;;;0.95;0.55;;;;;;;17.02;60.50;98702.97;3138912;28;20048;-85
2021/12/30 05:46:27;;;;;;;0.82;0.70;;;;;;;17.03;60.47;98710.00;3139076;28;20056;-87
2021/12/30 05:47:59;;;;;;;1.00;0.90;;;;;;;17.04;60.42;98712.50;3142074;28;20086;-87
2021/12/30 05:49:31;;;;;;;0.63;0.50;;;;;;;17.04;60.45;98715.16;3139898;28;20585;-86
2021/12/30 05:51:03;;;;;;;0.65;0.65;;;;;;;17.07;60.54;98722.00;3141648;28;20126;-85
2021/12/30 05:52:36;;;;;;;0.55;0.50;;;;;;;17.08;60.48;98719.13;3138366;28;20044;-87
2021/12/30 05:54:09;;;;;;;1.17;0.75;;;;;;;17.10;60.23;98718.94;3141865;28;20040;-85
2021/12/30 05:55:40;;;;;;;0.85;0.63;;;;;;;17.10;60.42;98721.59;3140976;28;20539;-87
2021/12/30 05:57:14;;;;;;;0.73;0.73;;;;;;;17.11;60.38;98731.31;3140956;28;20499;-87
2021/12/30 05:58:48;;;;;;;0.63;0.30;;;;;;;17.11;60.24;98726.78;3139897;28;20053;-86
2021/12/30 06:00:22;;;;;;;0.45;0.38;;;;;;;17.12;60.39;98730.28;3140105;28;20047;-88
2021/12/30 06:01:54;;;;;;;1.08;0.75;;;;;;;17.12;60.29;98731.13;3140738;28;20048;-88
2021/12/30 06:03:26;;;;;;;0.50;0.50;;;;;;;17.14;60.28;98729.09;3139666;28;20492;-88
2021/12/30 06:04:57;;;;;;;1.13;0.60;;;;;;;17.13;60.35;98732.81;3141591;28;20053;-85
2021/12/30 06:06:29;;;;;;;0.60;0.50;;;;;;;17.13;60.21;98738.16;3138584;28;20404;-86
2021/12/30 06:08:01;;;;;;;2.05;0.60;;;;;;;17.15;60.25;98743.31;3138105;28;20044;-87
2021/12/30 06:09:33;;;;;;;0.70;0.50;;;;;;;17.16;60.22;98736.91;3136313;28;20053;-87
2021/12/30 06:11:05;;;;;;;2.08;0.93;;;;;;;17.16;60.21;98745.81;3136988;28;20052;-86
2021/12/30 06:12:39;;;;;;;0.60;0.50;;;;;;;17.17;60.17;98746.63;3139546;28;20060;-87
2021/12/30 06:14:10;;;;;;;0.40;0.40;;;;;;;17.17;60.14;98750.13;3138473;28;20051;-87
2021/12/30 06:15:42;;;;;;;1.48;0.75;;;;;;;17.18;60.17;98748.28;3140502;28;20055;-87
2021/12/30 06:17:15;;;;;;;0.43;0.40;;;;;;;17.22;60.08;98743.38;3136264;28;20047;-87
2021/12/30 06:18:47;;;;;;;2.25;0.63;;;;;;;17.23;60.26;98739.69;3140473;28;20048;-86
2021/12/30 06:20:19;;;;;;;0.88;0.85;;;;;;;17.23;60.16;98734.31;3138577;28;20041;-86
2021/12/30 06:21:51;;;;;;;0.30;0.30;;;;;;;17.25;60.04;98740.31;3140863;28;20052;-86
2021/12/30 06:23:23;;;;;;;0.80;0.38;;;;;;;17.25;60.07;98738.47;3141449;28;20040;-87
2021/12/30 06:24:55;;;;;;;0.60;0.60;;;;;;;17.27;60.14;98738.25;3140089;28;20053;-87
2021/12/30 06:26:27;;;;;;;0.65;0.60;;;;;;;17.28;60.14;98747.97;3135459;28;20048;-86
2021/12/30 06:28:00;;;;;;;0.40;0.40;;;;;;;17.30;59.98;98753.97;3140239;28;20037;-87
2021/12/30 06:29:33;;;;;;;0.73;0.50;;;;;;;17.32;59.98;98747.38;3137345;28;20544;-86
2021/12/30 06:31:05;;;;;;;0.57;0.40;;;;;;;17.32;60.05;98747.38;3141300;28;20044;-87
2021/12/30 06:32:37;;;;;;;0.47;0.47;;;;;;;17.33;60.13;98750.91;3139686;28;20278;-86
2021/12/30 06:34:09;;;;;;;0.80;0.43;;;;;;;17.36;59.86;98750.53;3138598;28;20455;-87
2021/12/30 06:35:41;;;;;;;0.50;0.50;;;;;;;17.37;59.92;98760.22;3138758;28;20036;-86
2021/12/30 06:37:13;;;;;;;0.88;0.47;;;;;;;17.37;60.02;98761.03;3138520;28;20504;-86
2021/12/30 06:38:45;;;;;;;0.40;0.40;;;;;;;17.41;60.01;98764.16;3140884;28;20404;-86
2021/12/30 06:40:17;;;;;;;0.63;0.32;;;;;;;17.42;59.74;98765.84;3137804;28;20495;-87
2021/12/30 06:41:49;;;;;;;0.70;0.63;;;;;;;17.42;59.79;98772.03;3135022;28;20051;-86
2021/12/30 06:43:22;;;;;;;0.70;0.50;;;;;;;17.43;59.88;98771.00;3138588;28;20408;-85
2021/12/30 06:44:54;;;;;;;0.43;0.43;;;;;;;17.44;59.67;98769.16;3139947;28;20040;-87
2021/12/30 06:46:26;;;;;;;0.63;0.40;;;;;;;17.46;59.75;98777.81;3140208;28;20167;-86
2021/12/30 06:47:59;;;;;;;0.35;0.35;;;;;;;17.47;59.74;98784.88;3139031;28;20094;-87
2021/12/30 06:49:36;;;;;;;0.60;0.60;;;;;;;17.50;59.73;98787.16;3139615;28;20652;-86
2021/12/30 06:51:08;;;;;;;0.55;0.55;;;;;;;17.51;59.82;98786.13;3141830;28;20485;-85
2021/12/30 06:52:43;;;;;;;0.32;0.32;;;;;;;17.53;59.69;98786.78;3137302;28;20040;-87
2021/12/30 06:54:14;;;;;;;0.45;0.43;;;;;;;17.55;59.80;98787.41;3138090;28;20530;-86
2021/12/30 06:55:48;;;;;;;0.75;0.50;;;;;;;17.56;59.56;98791.75;3144432;28;20044;-88
2021/12/30 06:57:19;;;;;;;0.50;0.40;;;;;;;17.59;59.73;98799.41;3137465;28;20360;-87
2021/12/30 06:58:53;;;;;;;1.15;0.50;;;;;;;17.58;59.55;98795.06;3133219;28;20526;-88
2021/12/30 07:00:25;;;;;;;0.20;0.20;;;;;;;17.60;59.62;98795.69;3138573;28;20060;-88
2021/12/30 07:01:57;;;;;;;0.77;0.60;;;;;;;17.62;59.75;98796.34;3137390;28;20052;-86
2021/12/30 07:03:29;;;;;;;0.82;0.50;;;;;;;17.64;59.57;98796.97;3141072;28;20496;-87
2021/12/30 07:05:01;;;;;;;0.50;0.50;;;;;;;17.63;59.62;98795.34;3145186;28;20056;-87
2021/12/30 07:06:33;;;;;;;0.77;0.77;;;;;;;17.67;59.60;98803.81;3137339;28;20057;-90
2021/12/30 07:08:06;;;;;;;0.40;0.40;;;;;;;17.67;59.46;98800.31;3140707;28;20048;-87
2021/12/30 07:09:38;;;;;;;1.17;0.55;;;;;;;17.67;59.36;98805.66;3137232;28;20142;-88
2021/12/30 07:11:10;;;;;;;1.65;0.65;;;;;;;17.66;59.62;98799.44;3134783;28;20196;-86
2021/12/30 07:12:42;;;;;;;0.77;0.47;;;;;;;17.67;59.61;98801.13;3138877;28;20053;-87
2021/12/30 07:14:15;;;;;;;0.77;0.57;;;;;;;17.67;59.49;98794.94;3140033;28;20052;-88
2021/12/30 07:15:47;;;;;;;0.50;0.40;;;;;;;17.67;59.70;98792.25;3143290;28;20044;-86
2021/12/30 07:17:19;;;;;;;0.55;0.50;;;;;;;17.68;59.51;98796.59;3149639;28;20044;-88